Ioannis L — SVA3690 — position and weather

sailwx.info

Track history (hours):
 
Tides and Currents Weather Stations Pressure Air Temp Water Temp Dewpoint Dewpoint Depression Visibility Wind Speed Wind Dir Waves Ship Positions

Ioannis L

Last reported at 2017-Sep-29 13:32 UTC. Time now 2017-Nov-17 23:06 UTC.
Position N 37°58' E 023°33'.
Warning: this ship's position is 49 days out of date.

Length 60 m.

Type: Tanker. MMSI: 241112000.

Date/timePositionNaut miles runAvg speedWind from/ knotsBaromVisibWave heightAir tempDewpointWater temp
2017-Sep-29 13:32N 37°58' E 023°33'0 0.0
2017-Sep-29 13:30N 37°58' E 023°33'0 0.0
2017-Sep-29 13:00N 37°58' E 023°33'0 0.0
2017-Sep-29 12:30N 37°58' E 023°33'0 0.0
2017-Sep-29 12:00N 37°58' E 023°33'0 0.0
2017-Sep-29 11:30N 37°58' E 023°33'2 3.0
2017-Sep-29 11:00N 37°57' E 023°35'3 6.0
2017-Sep-29 10:30N 37°54' E 023°33'3 5.7
2017-Sep-29 10:00N 37°52' E 023°31'3 5.8
2017-Sep-29 09:30N 37°49' E 023°30'3 1.2
2017-Sep-29 07:09N 37°46' E 023°28'0 0.1
2017-Sep-29 07:00N 37°46' E 023°28'3 5.2
2017-Sep-29 06:30N 37°49' E 023°30'3 6.1
2017-Sep-29 06:00N 37°51' E 023°32'3 5.8
2017-Sep-29 05:30N 37°54' E 023°33'3 5.6
2017-Sep-29 05:00N 37°56' E 023°35'2 3.1
2017-Sep-29 04:30N 37°58' E 023°33'0 0.0
2017-Sep-28 08:25N 37°58' E 023°33'2 3.9
2017-Sep-28 08:00N 37°57' E 023°35'3 6.3
2017-Sep-28 07:30N 37°54' E 023°33'3 6.1
2017-Sep-28 07:00N 37°51' E 023°31'3 6.1
2017-Sep-28 06:30N 37°48' E 023°29'2 1.0
2017-Sep-28 04:19N 37°46' E 023°28'0 0.4
2017-Sep-28 04:00N 37°46' E 023°28'3 5.4
2017-Sep-28 03:30N 37°49' E 023°30'3 6.0
2017-Sep-28 03:00N 37°51' E 023°32'3 5.9
2017-Sep-28 02:30N 37°54' E 023°33'3 5.6
2017-Sep-28 02:00N 37°57' E 023°35'1 3.0
2017-Sep-28 01:30N 37°58' E 023°33'0 0.0
2017-Sep-27 17:14N 37°58' E 023°33'1 2.6
2017-Sep-27 17:00N 37°57' E 023°34'3 5.3
2017-Sep-27 16:30N 37°55' E 023°34'3 6.5
2017-Sep-27 16:00N 37°52' E 023°32'3 6.4
2017-Sep-27 15:30N 37°49' E 023°30'3 5.6
2017-Sep-27 15:00N 37°46' E 023°28'0 0.0
2017-Sep-27 13:28N 37°46' E 023°28'1 2.9
2017-Sep-27 13:00N 37°48' E 023°29'3 5.9
2017-Sep-27 12:30N 37°50' E 023°31'3 6.1
2017-Sep-27 12:00N 37°53' E 023°33'3 5.7
2017-Sep-27 11:30N 37°55' E 023°34'2 4.1
2017-Sep-27 11:01N 37°57' E 023°33'0 0.6
2017-Sep-27 10:30N 37°58' E 023°33'0 0.0
2017-Sep-27 10:01N 37°58' E 023°33'0 0.0
2017-Sep-27 09:30N 37°58' E 023°33'0 0.0
2017-Sep-27 09:01N 37°58' E 023°33'0 0.1
2017-Sep-27 08:31N 37°58' E 023°33'2 4.5
2017-Sep-27 08:01N 37°55' E 023°34'4 6.4
2017-Sep-27 07:26N 37°52' E 023°32'6 6.3
2017-Sep-27 06:30N 37°47' E 023°29'1 0.3
2017-Sep-27 04:21N 37°46' E 023°28'1 2.5
2017-Sep-27 04:00N 37°47' E 023°29'3 5.8
2017-Sep-27 03:30N 37°50' E 023°31'3 6.0
2017-Sep-27 03:00N 37°52' E 023°32'3 5.8
2017-Sep-27 02:30N 37°55' E 023°34'2 4.6
2017-Sep-27 02:00N 37°57' E 023°34'1 1.6
2017-Sep-27 01:30N 37°58' E 023°33'0 0.0
2017-Sep-26 17:50N 37°58' E 023°33'1 4.4
2017-Sep-26 17:30N 37°57' E 023°35'3 6.2
2017-Sep-26 17:00N 37°54' E 023°32'3 6.4
2017-Sep-26 16:30N 37°52' E 023°30'3 6.4
2017-Sep-26 16:00N 37°49' E 023°28'3 6.6
2017-Sep-26 15:30N 37°47' E 023°25'3 6.5
2017-Sep-26 15:00N 37°43' E 023°25'2 0.3
2017-Sep-26 07:53N 37°42' E 023°22'2 5.1
2017-Sep-26 07:30N 37°43' E 023°25'3 5.3
2017-Sep-26 07:00N 37°45' E 023°25'3 5.4
2017-Sep-26 06:30N 37°48' E 023°27'3 5.9
2017-Sep-26 06:00N 37°50' E 023°28'3 6.0
2017-Sep-26 05:30N 37°53' E 023°31'3 5.8
2017-Sep-26 05:00N 37°55' E 023°33'2 4.7
2017-Sep-26 04:30N 37°57' E 023°35'1 0.1
2017-Sep-25 15:46N 37°58' E 023°33'1 3.3
2017-Sep-25 15:30N 37°57' E 023°34'3 5.5
2017-Sep-25 15:00N 37°54' E 023°33'3 6.4
2017-Sep-25 14:30N 37°51' E 023°32'3 6.2
2017-Sep-25 14:00N 37°49' E 023°30'3 1.0
2017-Sep-25 11:25N 37°46' E 023°28'2 4.0
2017-Sep-25 11:01N 37°48' E 023°29'3 5.7
2017-Sep-25 10:30N 37°50' E 023°31'3 5.8
2017-Sep-25 10:01N 37°53' E 023°32'3 5.6
2017-Sep-25 09:31N 37°55' E 023°34'2 4.0
2017-Sep-25 09:00N 37°57' E 023°33'0 0.0
2017-Sep-24 08:19N 37°58' E 023°33'1 4.4
2017-Sep-24 08:00N 37°57' E 023°35'3 6.4
2017-Sep-24 07:30N 37°54' E 023°33'3 6.2
2017-Sep-24 07:00N 37°51' E 023°32'3 6.3
2017-Sep-24 06:30N 37°48' E 023°29'2 1.0
2017-Sep-24 04:10N 37°46' E 023°28'0 1.0
2017-Sep-24 04:01N 37°46' E 023°28'3 5.5
2017-Sep-24 03:31N 37°49' E 023°30'3 5.8
2017-Sep-24 03:01N 37°51' E 023°32'3 5.8
2017-Sep-24 02:31N 37°54' E 023°33'3 5.6
2017-Sep-24 02:01N 37°57' E 023°35'2 3.1
2017-Sep-24 01:30N 37°58' E 023°33'0 0.0
2017-Sep-23 20:04N 37°58' E 023°33'0 0.1
2017-Sep-23 20:01N 37°58' E 023°33'0 0.0
2017-Sep-21 16:30N 37°58' E 023°33'0 0.0
2017-Sep-21 16:00N 37°58' E 023°33'0 0.0
2017-Sep-21 15:30N 37°58' E 023°33'0 0.0
2017-Sep-21 15:00N 37°58' E 023°33'0 0.0
2017-Sep-21 14:30N 37°58' E 023°33'0 0.0
2017-Sep-21 14:00N 37°58' E 023°33'0 0.1
2017-Sep-21 13:30N 37°58' E 023°33'2 3.9
2017-Sep-21 13:00N 37°56' E 023°35'3 6.2
2017-Sep-21 12:30N 37°53' E 023°33'3 6.8
2017-Sep-21 12:00N 37°51' E 023°30'3 6.1
2017-Sep-21 11:30N 37°48' E 023°29'1 0.6
2017-Sep-21 09:09N 37°46' E 023°28'0 1.7
2017-Sep-21 09:00N 37°47' E 023°28'3 5.1
2017-Sep-21 08:30N 37°49' E 023°29'3 5.0
2017-Sep-21 08:00N 37°51' E 023°31'2 4.9
2017-Sep-21 07:30N 37°53' E 023°32'2 4.9
2017-Sep-21 07:00N 37°55' E 023°34'2 4.0
2017-Sep-21 06:30N 37°57' E 023°34'0 0.0
2017-Sep-20 08:45N 37°58' E 023°33'1 3.7
2017-Sep-20 08:30N 37°57' E 023°34'2 4.8
2017-Sep-20 08:00N 37°55' E 023°33'3 6.3
2017-Sep-20 07:31N 37°52' E 023°31'3 5.7
2017-Sep-20 07:00N 37°50' E 023°29'4 1.3
2017-Sep-20 04:18N 37°46' E 023°28'1 2.4
2017-Sep-20 04:01N 37°47' E 023°29'3 5.5
2017-Sep-20 03:30N 37°49' E 023°30'3 5.6
2017-Sep-20 03:00N 37°52' E 023°32'3 5.5
2017-Sep-20 02:30N 37°54' E 023°34'3 5.5
2017-Sep-20 02:00N 37°57' E 023°35'1 3.0
2017-Sep-20 01:30N 37°58' E 023°33'0 0.0
2017-Sep-19 17:07N 37°58' E 023°33'0 0.5
2017-Sep-19 17:00N 37°58' E 023°33'2 4.4
2017-Sep-19 16:30N 37°56' E 023°34'3 6.5
2017-Sep-19 16:00N 37°53' E 023°32'3 6.2
2017-Sep-19 15:30N 37°50' E 023°30'3 6.2
2017-Sep-19 15:00N 37°47' E 023°29'  
Track history (hours):
 
Tides and Currents Weather Stations Pressure Air Temp Water Temp Dewpoint Dewpoint Depression Visibility Wind Speed Wind Dir Waves Ship Positions

Ioannis L

Last reported at 2017-Sep-29 13:32 UTC. Time now 2017-Nov-17 23:06 UTC.
Position N 37°58' E 023°33'.
Warning: this ship's position is 49 days out of date.

Length 60 m.

Type: Tanker. MMSI: 241112000.

Date/timePositionNaut miles runAvg speedWind from/ knotsBaromVisibWave heightAir tempDewpointWater temp
2017-Sep-29 13:32N 37°58' E 023°33'0 0.0
2017-Sep-29 13:30N 37°58' E 023°33'0 0.0
2017-Sep-29 13:00N 37°58' E 023°33'0 0.0
2017-Sep-29 12:30N 37°58' E 023°33'0 0.0
2017-Sep-29 12:00N 37°58' E 023°33'0 0.0
2017-Sep-29 11:30N 37°58' E 023°33'2 3.0
2017-Sep-29 11:00N 37°57' E 023°35'3 6.0
2017-Sep-29 10:30N 37°54' E 023°33'3 5.7
2017-Sep-29 10:00N 37°52' E 023°31'3 5.8
2017-Sep-29 09:30N 37°49' E 023°30'3 1.2
2017-Sep-29 07:09N 37°46' E 023°28'0 0.1
2017-Sep-29 07:00N 37°46' E 023°28'3 5.2
2017-Sep-29 06:30N 37°49' E 023°30'3 6.1
2017-Sep-29 06:00N 37°51' E 023°32'3 5.8
2017-Sep-29 05:30N 37°54' E 023°33'3 5.6
2017-Sep-29 05:00N 37°56' E 023°35'2 3.1
2017-Sep-29 04:30N 37°58' E 023°33'0 0.0
2017-Sep-28 08:25N 37°58' E 023°33'2 3.9
2017-Sep-28 08:00N 37°57' E 023°35'3 6.3
2017-Sep-28 07:30N 37°54' E 023°33'3 6.1
2017-Sep-28 07:00N 37°51' E 023°31'3 6.1
2017-Sep-28 06:30N 37°48' E 023°29'2 1.0
2017-Sep-28 04:19N 37°46' E 023°28'0 0.4
2017-Sep-28 04:00N 37°46' E 023°28'3 5.4
2017-Sep-28 03:30N 37°49' E 023°30'3 6.0
2017-Sep-28 03:00N 37°51' E 023°32'3 5.9
2017-Sep-28 02:30N 37°54' E 023°33'3 5.6
2017-Sep-28 02:00N 37°57' E 023°35'1 3.0
2017-Sep-28 01:30N 37°58' E 023°33'0 0.0
2017-Sep-27 17:14N 37°58' E 023°33'1 2.6
2017-Sep-27 17:00N 37°57' E 023°34'3 5.3
2017-Sep-27 16:30N 37°55' E 023°34'3 6.5
2017-Sep-27 16:00N 37°52' E 023°32'3 6.4
2017-Sep-27 15:30N 37°49' E 023°30'3 5.6
2017-Sep-27 15:00N 37°46' E 023°28'0 0.0
2017-Sep-27 13:28N 37°46' E 023°28'1 2.9
2017-Sep-27 13:00N 37°48' E 023°29'3 5.9
2017-Sep-27 12:30N 37°50' E 023°31'3 6.1
2017-Sep-27 12:00N 37°53' E 023°33'3 5.7
2017-Sep-27 11:30N 37°55' E 023°34'2 4.1
2017-Sep-27 11:01N 37°57' E 023°33'0 0.6
2017-Sep-27 10:30N 37°58' E 023°33'0 0.0
2017-Sep-27 10:01N 37°58' E 023°33'0 0.0
2017-Sep-27 09:30N 37°58' E 023°33'0 0.0
2017-Sep-27 09:01N 37°58' E 023°33'0 0.1
2017-Sep-27 08:31N 37°58' E 023°33'2 4.5
2017-Sep-27 08:01N 37°55' E 023°34'4 6.4
2017-Sep-27 07:26N 37°52' E 023°32'6 6.3
2017-Sep-27 06:30N 37°47' E 023°29'1 0.3
2017-Sep-27 04:21N 37°46' E 023°28'1 2.5
2017-Sep-27 04:00N 37°47' E 023°29'3 5.8
2017-Sep-27 03:30N 37°50' E 023°31'3 6.0
2017-Sep-27 03:00N 37°52' E 023°32'3 5.8
2017-Sep-27 02:30N 37°55' E 023°34'2 4.6
2017-Sep-27 02:00N 37°57' E 023°34'1 1.6
2017-Sep-27 01:30N 37°58' E 023°33'0 0.0
2017-Sep-26 17:50N 37°58' E 023°33'1 4.4
2017-Sep-26 17:30N 37°57' E 023°35'3 6.2
2017-Sep-26 17:00N 37°54' E 023°32'3 6.4
2017-Sep-26 16:30N 37°52' E 023°30'3 6.4
2017-Sep-26 16:00N 37°49' E 023°28'3 6.6
2017-Sep-26 15:30N 37°47' E 023°25'3 6.5
2017-Sep-26 15:00N 37°43' E 023°25'2 0.3
2017-Sep-26 07:53N 37°42' E 023°22'2 5.1
2017-Sep-26 07:30N 37°43' E 023°25'3 5.3
2017-Sep-26 07:00N 37°45' E 023°25'3 5.4
2017-Sep-26 06:30N 37°48' E 023°27'3 5.9
2017-Sep-26 06:00N 37°50' E 023°28'3 6.0
2017-Sep-26 05:30N 37°53' E 023°31'3 5.8
2017-Sep-26 05:00N 37°55' E 023°33'2 4.7
2017-Sep-26 04:30N 37°57' E 023°35'1 0.1
2017-Sep-25 15:46N 37°58' E 023°33'1 3.3
2017-Sep-25 15:30N 37°57' E 023°34'3 5.5
2017-Sep-25 15:00N 37°54' E 023°33'3 6.4
2017-Sep-25 14:30N 37°51' E 023°32'3 6.2
2017-Sep-25 14:00N 37°49' E 023°30'3 1.0
2017-Sep-25 11:25N 37°46' E 023°28'2 4.0
2017-Sep-25 11:01N 37°48' E 023°29'3 5.7
2017-Sep-25 10:30N 37°50' E 023°31'3 5.8
2017-Sep-25 10:01N 37°53' E 023°32'3 5.6
2017-Sep-25 09:31N 37°55' E 023°34'2 4.0
2017-Sep-25 09:00N 37°57' E 023°33'0 0.0
2017-Sep-24 08:19N 37°58' E 023°33'1 4.4
2017-Sep-24 08:00N 37°57' E 023°35'3 6.4
2017-Sep-24 07:30N 37°54' E 023°33'3 6.2
2017-Sep-24 07:00N 37°51' E 023°32'3 6.3
2017-Sep-24 06:30N 37°48' E 023°29'2 1.0
2017-Sep-24 04:10N 37°46' E 023°28'0 1.0
2017-Sep-24 04:01N 37°46' E 023°28'3 5.5
2017-Sep-24 03:31N 37°49' E 023°30'3 5.8
2017-Sep-24 03:01N 37°51' E 023°32'3 5.8
2017-Sep-24 02:31N 37°54' E 023°33'3 5.6
2017-Sep-24 02:01N 37°57' E 023°35'2 3.1
2017-Sep-24 01:30N 37°58' E 023°33'0 0.0
2017-Sep-23 20:04N 37°58' E 023°33'0 0.1
2017-Sep-23 20:01N 37°58' E 023°33'0 0.0
2017-Sep-21 16:30N 37°58' E 023°33'0 0.0
2017-Sep-21 16:00N 37°58' E 023°33'0 0.0
2017-Sep-21 15:30N 37°58' E 023°33'0 0.0
2017-Sep-21 15:00N 37°58' E 023°33'0 0.0
2017-Sep-21 14:30N 37°58' E 023°33'0 0.0
2017-Sep-21 14:00N 37°58' E 023°33'0 0.1
2017-Sep-21 13:30N 37°58' E 023°33'2 3.9
2017-Sep-21 13:00N 37°56' E 023°35'3 6.2
2017-Sep-21 12:30N 37°53' E 023°33'3 6.8
2017-Sep-21 12:00N 37°51' E 023°30'3 6.1
2017-Sep-21 11:30N 37°48' E 023°29'1 0.6
2017-Sep-21 09:09N 37°46' E 023°28'0 1.7
2017-Sep-21 09:00N 37°47' E 023°28'3 5.1
2017-Sep-21 08:30N 37°49' E 023°29'3 5.0
2017-Sep-21 08:00N 37°51' E 023°31'2 4.9
2017-Sep-21 07:30N 37°53' E 023°32'2 4.9
2017-Sep-21 07:00N 37°55' E 023°34'2 4.0
2017-Sep-21 06:30N 37°57' E 023°34'0 0.0
2017-Sep-20 08:45N 37°58' E 023°33'1 3.7
2017-Sep-20 08:30N 37°57' E 023°34'2 4.8
2017-Sep-20 08:00N 37°55' E 023°33'3 6.3
2017-Sep-20 07:31N 37°52' E 023°31'3 5.7
2017-Sep-20 07:00N 37°50' E 023°29'4 1.3
2017-Sep-20 04:18N 37°46' E 023°28'1 2.4
2017-Sep-20 04:01N 37°47' E 023°29'3 5.5
2017-Sep-20 03:30N 37°49' E 023°30'3 5.6
2017-Sep-20 03:00N 37°52' E 023°32'3 5.5
2017-Sep-20 02:30N 37°54' E 023°34'3 5.5
2017-Sep-20 02:00N 37°57' E 023°35'1 3.0
2017-Sep-20 01:30N 37°58' E 023°33'0 0.0
2017-Sep-19 17:07N 37°58' E 023°33'0 0.5
2017-Sep-19 17:00N 37°58' E 023°33'2 4.4
2017-Sep-19 16:30N 37°56' E 023°34'3 6.5
2017-Sep-19 16:00N 37°53' E 023°32'3 6.2
2017-Sep-19 15:30N 37°50' E 023°30'3 6.2
2017-Sep-19 15:00N 37°47' E 023°29'  

Dump ship's entire track history